sensor_id;sensor_type;location;lat;lon;timestamp;pressure;altitude;pressure_sealevel;temperature;humidity
63194;BME280;49289;51.670;5.624;2023-02-13T00:00:06;103857.91;;;15.37;50.43
63194;BME280;49289;51.670;5.624;2023-02-13T00:01:51;103851.81;;;15.36;50.37
63194;BME280;49289;51.670;5.624;2023-02-13T00:03:38;103871.46;;;15.32;50.47
63194;BME280;49289;51.670;5.624;2023-02-13T00:05:26;103858.83;;;15.37;50.41
63194;BME280;49289;51.670;5.624;2023-02-13T00:07:15;103857.04;;;15.27;50.52
63194;BME280;49289;51.670;5.624;2023-02-13T00:09:02;103869.11;;;15.41;50.51
63194;BME280;49289;51.670;5.624;2023-02-13T00:10:49;103849.53;;;15.37;50.47
63194;BME280;49289;51.670;5.624;2023-02-13T00:12:36;103849.05;;;15.43;50.47
63194;BME280;49289;51.670;5.624;2023-02-13T00:14:26;103857.94;;;15.46;50.46
63194;BME280;49289;51.670;5.624;2023-02-13T00:16:14;103856.33;;;15.40;50.47
63194;BME280;49289;51.670;5.624;2023-02-13T00:18:01;103866.20;;;15.53;50.37
63194;BME280;49289;51.670;5.624;2023-02-13T00:19:50;103852.64;;;15.47;50.36
63194;BME280;49289;51.670;5.624;2023-02-13T00:21:37;103871.73;;;15.64;50.32
63194;BME280;49289;51.670;5.624;2023-02-13T00:23:25;103868.23;;;15.57;50.24
63194;BME280;49289;51.670;5.624;2023-02-13T00:25:13;103850.60;;;15.51;50.19
63194;BME280;49289;51.670;5.624;2023-02-13T00:27:02;103869.67;;;15.63;50.16
63194;BME280;49289;51.670;5.624;2023-02-13T00:28:50;103851.10;;;15.52;50.37
63194;BME280;49289;51.670;5.624;2023-02-13T00:30:38;103845.91;;;15.55;50.19
63194;BME280;49289;51.670;5.624;2023-02-13T00:32:26;103857.79;;;15.64;50.22
63194;BME280;49289;51.670;5.624;2023-02-13T00:34:13;103847.45;;;15.60;50.27
63194;BME280;49289;51.670;5.624;2023-02-13T00:36:07;103860.12;;;15.67;50.22
63194;BME280;49289;51.670;5.624;2023-02-13T00:37:53;103858.69;;;15.67;50.18
63194;BME280;49289;51.670;5.624;2023-02-13T00:39:40;103840.13;;;15.49;50.20
63194;BME280;49289;51.670;5.624;2023-02-13T00:41:27;103841.69;;;15.48;50.44
63194;BME280;49289;51.670;5.624;2023-02-13T00:43:14;103859.28;;;15.55;50.72
63194;BME280;49289;51.670;5.624;2023-02-13T00:45:04;103858.48;;;15.49;50.58
63194;BME280;49289;51.670;5.624;2023-02-13T00:46:53;103841.64;;;15.42;50.65
63194;BME280;49289;51.670;5.624;2023-02-13T00:48:40;103842.09;;;15.40;50.77
63194;BME280;49289;51.670;5.624;2023-02-13T00:50:28;103841.28;;;15.45;50.62
63194;BME280;49289;51.670;5.624;2023-02-13T00:52:18;103842.95;;;15.40;50.80
63194;BME280;49289;51.670;5.624;2023-02-13T00:54:06;103842.33;;;15.43;50.76
63194;BME280;49289;51.670;5.624;2023-02-13T00:55:54;103860.33;;;15.50;50.68
63194;BME280;49289;51.670;5.624;2023-02-13T00:57:41;103860.59;;;15.47;50.76
63194;BME280;49289;51.670;5.624;2023-02-13T00:59:28;103843.05;;;15.38;50.77
63194;BME280;49289;51.670;5.624;2023-02-13T01:01:17;103844.66;;;15.35;50.98
63194;BME280;49289;51.670;5.624;2023-02-13T01:03:05;103840.37;;;15.33;51.03
63194;BME280;49289;51.670;5.624;2023-02-13T01:04:52;103843.45;;;15.29;50.95
63194;BME280;49289;51.670;5.624;2023-02-13T01:06:39;103840.20;;;15.38;50.77
63194;BME280;49289;51.670;5.624;2023-02-13T01:08:28;103843.41;;;15.37;50.89
63194;BME280;49289;51.670;5.624;2023-02-13T01:10:18;103840.21;;;15.33;50.89
63194;BME280;49289;51.670;5.624;2023-02-13T01:12:05;103843.05;;;15.39;50.88
63194;BME280;49289;51.670;5.624;2023-02-13T01:13:52;103858.16;;;15.43;50.95
63194;BME280;49289;51.670;5.624;2023-02-13T01:15:39;103864.27;;;15.47;50.95
63194;BME280;49289;51.670;5.624;2023-02-13T01:17:26;103844.20;;;15.39;50.75
63194;BME280;49289;51.670;5.624;2023-02-13T01:19:14;103865.05;;;15.55;50.84
63194;BME280;49289;51.670;5.624;2023-02-13T01:21:11;103855.59;;;15.49;50.80
63194;BME280;49289;51.670;5.624;2023-02-13T01:22:55;103847.84;;;15.46;50.77
63194;BME280;49289;51.670;5.624;2023-02-13T01:24:43;103848.49;;;15.43;51.01
63194;BME280;49289;51.670;5.624;2023-02-13T01:26:31;103849.95;;;15.43;50.87
63194;BME280;49289;51.670;5.624;2023-02-13T01:28:18;103862.70;;;15.53;50.83
63194;BME280;49289;51.670;5.624;2023-02-13T01:30:06;103844.47;;;15.47;50.76
63194;BME280;49289;51.670;5.624;2023-02-13T01:31:54;103861.09;;;15.60;50.68
63194;BME280;49289;51.670;5.624;2023-02-13T01:33:41;103855.88;;;15.54;50.75
63194;BME280;49289;51.670;5.624;2023-02-13T01:35:28;103854.82;;;15.56;50.67
63194;BME280;49289;51.670;5.624;2023-02-13T01:37:16;103859.98;;;15.56;50.63
63194;BME280;49289;51.670;5.624;2023-02-13T01:39:05;103842.44;;;15.35;50.81
63194;BME280;49289;51.670;5.624;2023-02-13T01:40:56;103855.80;;;15.52;50.71
63194;BME280;49289;51.670;5.624;2023-02-13T01:42:44;103859.55;;;15.35;51.00
63194;BME280;49289;51.670;5.624;2023-02-13T01:44:52;103860.02;;;15.33;51.08
63194;BME280;49289;51.670;5.624;2023-02-13T01:46:41;103850.50;;;15.31;51.23
63194;BME280;49289;51.670;5.624;2023-02-13T01:48:29;103842.23;;;15.17;51.27
63194;BME280;49289;51.670;5.624;2023-02-13T01:50:18;103839.50;;;15.28;51.31
63194;BME280;49289;51.670;5.624;2023-02-13T01:52:04;103830.13;;;15.34;51.29
63194;BME280;49289;51.670;5.624;2023-02-13T01:53:52;103844.23;;;15.45;51.18
63194;BME280;49289;51.670;5.624;2023-02-13T01:55:42;103824.89;;;15.23;51.38
63194;BME280;49289;51.670;5.624;2023-02-13T01:57:28;103825.73;;;15.19;51.38
63194;BME280;49289;51.670;5.624;2023-02-13T01:59:17;103821.57;;;15.21;51.27
63194;BME280;49289;51.670;5.624;2023-02-13T02:01:05;103822.48;;;15.16;51.39
63194;BME280;49289;51.670;5.624;2023-02-13T02:02:53;103841.50;;;15.31;51.21
63194;BME280;49289;51.670;5.624;2023-02-13T02:04:40;103824.75;;;15.13;51.49
63194;BME280;49289;51.670;5.624;2023-02-13T02:06:30;103825.41;;;15.13;51.48
63194;BME280;49289;51.670;5.624;2023-02-13T02:08:16;103827.95;;;15.20;51.31
63194;BME280;49289;51.670;5.624;2023-02-13T02:10:04;103827.66;;;15.13;51.52
63194;BME280;49289;51.670;5.624;2023-02-13T02:11:52;103823.75;;;15.19;51.54
63194;BME280;49289;51.670;5.624;2023-02-13T02:13:39;103822.00;;;15.11;51.63
63194;BME280;49289;51.670;5.624;2023-02-13T02:15:30;103820.16;;;15.13;51.62
63194;BME280;49289;51.670;5.624;2023-02-13T02:17:18;103825.25;;;15.13;51.57
63194;BME280;49289;51.670;5.624;2023-02-13T02:19:10;103824.23;;;15.17;51.60
63194;BME280;49289;51.670;5.624;2023-02-13T02:21:13;103818.19;;;15.18;51.54
63194;BME280;49289;51.670;5.624;2023-02-13T02:23:24;103831.94;;;15.15;51.70
63194;BME280;49289;51.670;5.624;2023-02-13T02:27:43;103832.52;;;15.20;51.83
63194;BME280;49289;51.670;5.624;2023-02-13T02:29:43;103816.52;;;15.15;51.71
63194;BME280;49289;51.670;5.624;2023-02-13T02:31:52;103832.70;;;15.32;51.44
63194;BME280;49289;51.670;5.624;2023-02-13T02:33:43;103833.75;;;15.21;51.64
63194;BME280;49289;51.670;5.624;2023-02-13T02:35:33;103820.17;;;15.20;51.67
63194;BME280;49289;51.670;5.624;2023-02-13T02:37:23;103833.34;;;15.28;51.71
63194;BME280;49289;51.670;5.624;2023-02-13T02:39:13;103831.42;;;15.28;51.63
63194;BME280;49289;51.670;5.624;2023-02-13T02:41:04;103818.63;;;15.23;51.61
63194;BME280;49289;51.670;5.624;2023-02-13T02:42:55;103830.19;;;15.35;51.64
63194;BME280;49289;51.670;5.624;2023-02-13T02:44:44;103832.14;;;15.33;51.66
63194;BME280;49289;51.670;5.624;2023-02-13T02:46:32;103810.80;;;15.25;51.65
63194;BME280;49289;51.670;5.624;2023-02-13T02:48:22;103830.02;;;15.31;51.65
63194;BME280;49289;51.670;5.624;2023-02-13T02:50:15;103828.06;;;15.30;51.64
63194;BME280;49289;51.670;5.624;2023-02-13T02:52:04;103815.22;;;15.20;51.83
63194;BME280;49289;51.670;5.624;2023-02-13T02:53:56;103805.02;;;15.01;51.91
63194;BME280;49289;51.670;5.624;2023-02-13T02:55:45;103803.38;;;15.04;52.01
63194;BME280;49289;51.670;5.624;2023-02-13T02:57:34;103806.78;;;15.03;52.02
63194;BME280;49289;51.670;5.624;2023-02-13T02:59:22;103808.55;;;15.07;51.97
63194;BME280;49289;51.670;5.624;2023-02-13T03:01:11;103804.36;;;15.10;51.94
63194;BME280;49289;51.670;5.624;2023-02-13T03:02:59;103809.03;;;15.03;52.18
63194;BME280;49289;51.670;5.624;2023-02-13T03:04:48;103821.17;;;15.20;52.00
63194;BME280;49289;51.670;5.624;2023-02-13T03:06:35;103807.41;;;15.05;52.07
63194;BME280;49289;51.670;5.624;2023-02-13T03:08:24;103811.70;;;15.04;52.02
63194;BME280;49289;51.670;5.624;2023-02-13T03:10:19;103806.37;;;14.86;52.32
63194;BME280;49289;51.670;5.624;2023-02-13T03:12:01;103824.47;;;15.02;52.05
63194;BME280;49289;51.670;5.624;2023-02-13T03:13:49;103809.84;;;14.93;52.06
63194;BME280;49289;51.670;5.624;2023-02-13T03:15:40;103808.77;;;14.83;52.25
63194;BME280;49289;51.670;5.624;2023-02-13T03:17:27;103821.11;;;14.91;52.20
63194;BME280;49289;51.670;5.624;2023-02-13T03:19:21;103808.55;;;14.78;52.24
63194;BME280;49289;51.670;5.624;2023-02-13T03:21:07;103813.88;;;14.75;52.24
63194;BME280;49289;51.670;5.624;2023-02-13T03:23:02;103807.05;;;14.65;52.36
63194;BME280;49289;51.670;5.624;2023-02-13T03:24:51;103811.30;;;14.64;52.36
63194;BME280;49289;51.670;5.624;2023-02-13T03:26:43;103826.27;;;14.66;52.46
63194;BME280;49289;51.670;5.624;2023-02-13T03:28:31;103809.13;;;14.49;52.48
63194;BME280;49289;51.670;5.624;2023-02-13T03:30:23;103827.36;;;14.52;52.50
63194;BME280;49289;51.670;5.624;2023-02-13T03:32:11;103828.31;;;14.45;52.45
63194;BME280;49289;51.670;5.624;2023-02-13T03:34:03;103809.51;;;14.32;52.49
63194;BME280;49289;51.670;5.624;2023-02-13T03:35:52;103820.45;;;14.32;52.49
63194;BME280;49289;51.670;5.624;2023-02-13T03:37:38;103801.75;;;14.15;52.64
63194;BME280;49289;51.670;5.624;2023-02-13T03:39:26;103809.14;;;14.06;52.74
63194;BME280;49289;51.670;5.624;2023-02-13T03:41:14;103814.51;;;14.00;52.86
63194;BME280;49289;51.670;5.624;2023-02-13T03:43:02;103813.73;;;13.96;52.70
63194;BME280;49289;51.670;5.624;2023-02-13T03:44:52;103816.39;;;13.89;52.82
63194;BME280;49289;51.670;5.624;2023-02-13T03:46:41;103812.41;;;13.74;53.01
63194;BME280;49289;51.670;5.624;2023-02-13T03:48:31;103822.45;;;13.65;53.19
63194;BME280;49289;51.670;5.624;2023-02-13T03:52:08;103820.16;;;13.48;53.44
63194;BME280;49289;51.670;5.624;2023-02-13T03:53:55;103838.34;;;13.56;53.44
63194;BME280;49289;51.670;5.624;2023-02-13T03:55:44;103818.06;;;13.37;53.61
63194;BME280;49289;51.670;5.624;2023-02-13T03:57:31;103818.95;;;13.31;53.78
63194;BME280;49289;51.670;5.624;2023-02-13T03:59:22;103817.69;;;13.30;53.63
63194;BME280;49289;51.670;5.624;2023-02-13T04:01:10;103817.03;;;13.28;53.65
63194;BME280;49289;51.670;5.624;2023-02-13T04:03:03;103815.47;;;13.27;53.63
63194;BME280;49289;51.670;5.624;2023-02-13T04:04:49;103833.26;;;13.33;53.72
63194;BME280;49289;51.670;5.624;2023-02-13T04:06:36;103813.41;;;13.18;53.47
63194;BME280;49289;51.670;5.624;2023-02-13T04:08:25;103820.75;;;13.14;53.34
63194;BME280;49289;51.670;5.624;2023-02-13T04:10:14;103815.54;;;13.08;53.35
63194;BME280;49289;51.670;5.624;2023-02-13T04:12:04;103836.24;;;13.13;53.34
63194;BME280;49289;51.670;5.624;2023-02-13T04:13:51;103818.16;;;12.93;53.42
63194;BME280;49289;51.670;5.624;2023-02-13T04:15:39;103836.35;;;12.93;53.73
63194;BME280;49289;51.670;5.624;2023-02-13T04:17:30;103819.27;;;12.79;53.80
63194;BME280;49289;51.670;5.624;2023-02-13T04:19:13;103819.40;;;12.76;53.66
63194;BME280;49289;51.670;5.624;2023-02-13T04:21:00;103676.48;;;11.91;53.47
63194;BME280;49289;51.670;5.624;2023-02-13T04:22:48;103820.16;;;12.63;53.87
63194;BME280;49289;51.670;5.624;2023-02-13T04:24:35;103818.33;;;12.57;53.92
63194;BME280;49289;51.670;5.624;2023-02-13T04:26:23;103837.56;;;12.65;54.13
63194;BME280;49289;51.670;5.624;2023-02-13T04:28:11;103819.89;;;12.46;54.23
63194;BME280;49289;51.670;5.624;2023-02-13T04:30:00;103819.69;;;12.44;54.14
63194;BME280;49289;51.670;5.624;2023-02-13T04:31:48;103821.14;;;12.43;54.16
63194;BME280;49289;51.670;5.624;2023-02-13T04:33:36;103835.16;;;12.50;54.10
63194;BME280;49289;51.670;5.624;2023-02-13T04:35:24;103837.91;;;12.48;54.02
63194;BME280;49289;51.670;5.624;2023-02-13T04:37:11;103816.66;;;12.29;54.18
63194;BME280;49289;51.670;5.624;2023-02-13T04:38:58;103836.31;;;12.35;54.21
63194;BME280;49289;51.670;5.624;2023-02-13T04:40:45;103817.11;;;12.25;54.18
63194;BME280;49289;51.670;5.624;2023-02-13T04:42:32;103820.28;;;12.19;54.46
63194;BME280;49289;51.670;5.624;2023-02-13T04:44:19;103831.14;;;12.27;54.30
63194;BME280;49289;51.670;5.624;2023-02-13T04:46:06;103814.52;;;12.15;54.30
63194;BME280;49289;51.670;5.624;2023-02-13T04:48:01;103815.69;;;12.07;54.58
63194;BME280;49289;51.670;5.624;2023-02-13T04:49:49;103822.83;;;12.08;54.55
63194;BME280;49289;51.670;5.624;2023-02-13T04:51:37;103808.67;;;11.97;54.46
63194;BME280;49289;51.670;5.624;2023-02-13T04:53:24;103804.78;;;11.94;54.39
63194;BME280;49289;51.670;5.624;2023-02-13T04:55:12;103802.87;;;11.92;54.37
63194;BME280;49289;51.670;5.624;2023-02-13T04:56:59;103819.66;;;12.02;54.28
63194;BME280;49289;51.670;5.624;2023-02-13T04:58:47;103801.85;;;11.89;54.52
63194;BME280;49289;51.670;5.624;2023-02-13T05:00:36;103796.41;;;11.87;54.68
63194;BME280;49289;51.670;5.624;2023-02-13T05:02:24;103814.56;;;11.98;54.83
63194;BME280;49289;51.670;5.624;2023-02-13T05:04:12;103800.81;;;11.91;54.80
63194;BME280;49289;51.670;5.624;2023-02-13T05:06:00;103795.93;;;11.91;54.72
63194;BME280;49289;51.670;5.624;2023-02-13T05:07:48;103814.86;;;11.97;54.70
63194;BME280;49289;51.670;5.624;2023-02-13T05:09:36;103809.13;;;12.02;54.51
63194;BME280;49289;51.670;5.624;2023-02-13T05:11:23;103793.04;;;11.82;54.89
63194;BME280;49289;51.670;5.624;2023-02-13T05:13:10;103813.69;;;11.94;54.68
63194;BME280;49289;51.670;5.624;2023-02-13T05:14:58;103802.34;;;11.78;54.60
63194;BME280;49289;51.670;5.624;2023-02-13T05:16:48;103797.14;;;11.79;54.61
63194;BME280;49289;51.670;5.624;2023-02-13T05:18:36;103797.67;;;11.72;54.50
63194;BME280;49289;51.670;5.624;2023-02-13T05:20:24;103815.70;;;11.63;54.72
63194;BME280;49289;51.670;5.624;2023-02-13T05:22:14;103798.80;;;11.62;54.66
63194;BME280;49289;51.670;5.624;2023-02-13T05:24:02;103792.53;;;11.59;54.70
63194;BME280;49289;51.670;5.624;2023-02-13T05:25:49;103797.55;;;11.61;54.61
63194;BME280;49289;51.670;5.624;2023-02-13T05:27:36;103789.17;;;11.57;54.57
63194;BME280;49289;51.670;5.624;2023-02-13T05:29:23;103808.08;;;11.63;54.71
63194;BME280;49289;51.670;5.624;2023-02-13T05:31:10;103790.61;;;11.50;54.63
63194;BME280;49289;51.670;5.624;2023-02-13T05:32:58;103805.73;;;11.59;54.56
63194;BME280;49289;51.670;5.624;2023-02-13T05:34:48;103796.80;;;11.48;54.58
63194;BME280;49289;51.670;5.624;2023-02-13T05:36:36;103792.52;;;11.46;54.70
63194;BME280;49289;51.670;5.624;2023-02-13T05:38:23;103811.78;;;11.52;54.69
63194;BME280;49289;51.670;5.624;2023-02-13T05:40:11;103812.80;;;11.52;54.61
63194;BME280;49289;51.670;5.624;2023-02-13T05:41:58;103795.56;;;11.38;54.64
63194;BME280;49289;51.670;5.624;2023-02-13T05:43:45;103785.13;;;11.30;54.67
63194;BME280;49289;51.670;5.624;2023-02-13T05:45:33;103795.03;;;11.33;54.71
63194;BME280;49289;51.670;5.624;2023-02-13T05:47:23;103794.99;;;11.28;55.01
63194;BME280;49289;51.670;5.624;2023-02-13T05:49:12;103791.25;;;11.28;55.09
63194;BME280;49289;51.670;5.624;2023-02-13T05:50:58;103807.39;;;11.39;54.97
63194;BME280;49289;51.670;5.624;2023-02-13T05:52:45;103810.45;;;11.35;54.92
63194;BME280;49289;51.670;5.624;2023-02-13T05:54:33;103789.84;;;11.14;54.97
63194;BME280;49289;51.670;5.624;2023-02-13T05:56:22;103804.77;;;11.25;54.96
63194;BME280;49289;51.670;5.624;2023-02-13T05:58:10;103796.32;;;11.19;54.94
63194;BME280;49289;51.670;5.624;2023-02-13T05:59:58;103789.13;;;11.14;54.86
63194;BME280;49289;51.670;5.624;2023-02-13T06:01:46;103793.79;;;11.17;54.68
63194;BME280;49289;51.670;5.624;2023-02-13T06:03:34;103791.48;;;11.10;54.73
63194;BME280;49289;51.670;5.624;2023-02-13T06:05:22;103798.44;;;11.08;54.63
63194;BME280;49289;51.670;5.624;2023-02-13T06:07:11;103792.86;;;11.02;54.65
63194;BME280;49289;51.670;5.624;2023-02-13T06:08:59;103796.36;;;10.98;54.74
63194;BME280;49289;51.670;5.624;2023-02-13T06:10:48;103817.08;;;11.05;54.89
63194;BME280;49289;51.670;5.624;2023-02-13T06:12:36;103805.58;;;11.07;54.83
63194;BME280;49289;51.670;5.624;2023-02-13T06:14:24;103794.62;;;10.88;54.98
63194;BME280;49289;51.670;5.624;2023-02-13T06:16:12;103791.52;;;10.92;54.84
63194;BME280;49289;51.670;5.624;2023-02-13T06:18:00;103789.23;;;10.83;54.93
63194;BME280;49289;51.670;5.624;2023-02-13T06:19:48;103809.22;;;10.91;54.92
63194;BME280;49289;51.670;5.624;2023-02-13T06:21:36;103807.03;;;10.91;54.82
63194;BME280;49289;51.670;5.624;2023-02-13T06:23:24;103792.51;;;10.84;54.82
63194;BME280;49289;51.670;5.624;2023-02-13T06:25:14;103793.66;;;10.84;54.76
63194;BME280;49289;51.670;5.624;2023-02-13T06:27:02;103792.50;;;10.80;54.78
63194;BME280;49289;51.670;5.624;2023-02-13T06:28:49;103797.50;;;10.77;54.87
63194;BME280;49289;51.670;5.624;2023-02-13T06:30:39;103799.64;;;10.77;54.83
63194;BME280;49289;51.670;5.624;2023-02-13T06:32:27;103801.20;;;10.76;54.80
63194;BME280;49289;51.670;5.624;2023-02-13T06:34:14;103796.80;;;10.79;54.62
63194;BME280;49289;51.670;5.624;2023-02-13T06:36:02;103806.48;;;10.80;54.76
63194;BME280;49289;51.670;5.624;2023-02-13T06:37:51;103799.81;;;10.74;54.88
63194;BME280;49289;51.670;5.624;2023-02-13T06:39:38;103801.93;;;10.75;54.81
63194;BME280;49289;51.670;5.624;2023-02-13T06:41:25;103804.79;;;10.69;54.81
63194;BME280;49289;51.670;5.624;2023-02-13T06:43:12;103822.98;;;10.79;54.75
63194;BME280;49289;51.670;5.624;2023-02-13T06:44:59;103820.17;;;10.77;54.69
63194;BME280;49289;51.670;5.624;2023-02-13T06:46:46;103821.42;;;10.69;54.74
63194;BME280;49289;51.670;5.624;2023-02-13T06:48:33;103800.16;;;10.58;54.77
63194;BME280;49289;51.670;5.624;2023-02-13T06:50:21;103801.58;;;10.53;54.77
63194;BME280;49289;51.670;5.624;2023-02-13T06:52:08;103799.06;;;10.47;55.01
63194;BME280;49289;51.670;5.624;2023-02-13T06:53:58;103806.66;;;10.45;55.08
63194;BME280;49289;51.670;5.624;2023-02-13T06:55:47;103804.42;;;10.44;54.96
63194;BME280;49289;51.670;5.624;2023-02-13T06:57:35;103802.02;;;10.40;55.00
63194;BME280;49289;51.670;5.624;2023-02-13T06:59:22;103821.53;;;10.51;54.85
63194;BME280;49289;51.670;5.624;2023-02-13T07:01:10;103806.94;;;10.45;54.89
63194;BME280;49289;51.670;5.624;2023-02-13T07:03:00;103798.81;;;10.43;54.87
63194;BME280;49289;51.670;5.624;2023-02-13T07:04:48;103812.07;;;10.48;54.83
63194;BME280;49289;51.670;5.624;2023-02-13T07:06:38;103808.98;;;10.41;54.88
63194;BME280;49289;51.670;5.624;2023-02-13T07:08:26;103809.39;;;10.41;54.85
63194;BME280;49289;51.670;5.624;2023-02-13T07:10:14;103813.98;;;10.43;54.82
63194;BME280;49289;51.670;5.624;2023-02-13T07:12:06;103813.57;;;10.37;54.85
63194;BME280;49289;51.670;5.624;2023-02-13T07:13:56;103812.67;;;10.35;54.80
63194;BME280;49289;51.670;5.624;2023-02-13T07:15:44;103813.44;;;10.38;54.81
63194;BME280;49289;51.670;5.624;2023-02-13T07:17:31;103836.02;;;10.53;54.71
63194;BME280;49289;51.670;5.624;2023-02-13T07:19:18;103828.20;;;10.43;54.80
63194;BME280;49289;51.670;5.624;2023-02-13T07:21:09;103823.09;;;10.40;54.73
63194;BME280;49289;51.670;5.624;2023-02-13T07:22:57;103823.06;;;10.33;54.73
63194;BME280;49289;51.670;5.624;2023-02-13T07:24:45;103831.44;;;10.35;54.80
63194;BME280;49289;51.670;5.624;2023-02-13T07:26:33;103850.05;;;10.54;54.70
63194;BME280;49289;51.670;5.624;2023-02-13T07:28:22;103835.44;;;10.41;54.81
63194;BME280;49289;51.670;5.624;2023-02-13T07:30:11;103842.34;;;10.48;54.70
63194;BME280;49289;51.670;5.624;2023-02-13T07:31:59;103853.23;;;10.54;54.71
63194;BME280;49289;51.670;5.624;2023-02-13T07:33:47;103837.75;;;10.45;54.76
63194;BME280;49289;51.670;5.624;2023-02-13T07:35:35;103843.89;;;10.56;54.64
63194;BME280;49289;51.670;5.624;2023-02-13T07:37:23;103855.50;;;10.63;54.77
63194;BME280;49289;51.670;5.624;2023-02-13T07:39:12;103840.92;;;10.53;54.87
63194;BME280;49289;51.670;5.624;2023-02-13T07:40:59;103853.45;;;10.59;54.93
63194;BME280;49289;51.670;5.624;2023-02-13T07:42:48;103834.98;;;10.62;54.73
63194;BME280;49289;51.670;5.624;2023-02-13T07:44:37;103836.81;;;10.61;54.80
63194;BME280;49289;51.670;5.624;2023-02-13T07:46:25;103859.41;;;10.75;54.86
63194;BME280;49289;51.670;5.624;2023-02-13T07:48:13;103842.09;;;10.68;54.82
63194;BME280;49289;51.670;5.624;2023-02-13T07:50:03;103852.22;;;10.77;54.80
63194;BME280;49289;51.670;5.624;2023-02-13T07:51:53;103834.24;;;10.64;54.97
63194;BME280;49289;51.670;5.624;2023-02-13T07:53:41;103850.55;;;10.80;54.96
63194;BME280;49289;51.670;5.624;2023-02-13T07:55:29;103842.98;;;10.75;55.02
63194;BME280;49289;51.670;5.624;2023-02-13T07:57:17;103835.86;;;10.78;54.99
63194;BME280;49289;51.670;5.624;2023-02-13T07:59:05;103836.14;;;10.82;55.07
63194;BME280;49289;51.670;5.624;2023-02-13T08:00:54;103842.02;;;10.87;55.24
63194;BME280;49289;51.670;5.624;2023-02-13T08:02:42;103838.62;;;10.89;55.39
63194;BME280;49289;51.670;5.624;2023-02-13T08:04:29;103836.02;;;10.96;55.45
63194;BME280;49289;51.670;5.624;2023-02-13T08:06:18;103856.83;;;11.16;55.33
63194;BME280;49289;51.670;5.624;2023-02-13T08:08:05;103869.03;;;11.28;55.17
63194;BME280;49289;51.670;5.624;2023-02-13T08:09:53;103848.10;;;11.28;55.29
63194;BME280;49289;51.670;5.624;2023-02-13T08:11:43;103841.81;;;11.34;55.40
63194;BME280;49289;51.670;5.624;2023-02-13T08:13:31;103848.41;;;11.47;55.52
63194;BME280;49289;51.670;5.624;2023-02-13T08:15:20;103855.95;;;11.61;55.46
63194;BME280;49289;51.670;5.624;2023-02-13T08:17:08;103868.94;;;11.78;55.51
63194;BME280;49289;51.670;5.624;2023-02-13T08:18:56;103853.83;;;11.81;55.66
63194;BME280;49289;51.670;5.624;2023-02-13T08:20:43;103866.68;;;11.98;55.79
63194;BME280;49289;51.670;5.624;2023-02-13T08:22:31;103853.09;;;11.95;55.81
63194;BME280;49289;51.670;5.624;2023-02-13T08:24:18;103868.16;;;12.17;55.92
63194;BME280;49289;51.670;5.624;2023-02-13T08:26:10;103849.36;;;12.12;56.30
63194;BME280;49289;51.670;5.624;2023-02-13T08:27:57;103848.69;;;12.32;56.36
63194;BME280;49289;51.670;5.624;2023-02-13T08:29:44;103853.26;;;12.40;56.48
63194;BME280;49289;51.670;5.624;2023-02-13T08:31:34;103854.27;;;12.56;56.35
63194;BME280;49289;51.670;5.624;2023-02-13T08:33:22;103852.88;;;12.62;56.53
63194;BME280;49289;51.670;5.624;2023-02-13T08:35:10;103854.86;;;12.75;56.56
63194;BME280;49289;51.670;5.624;2023-02-13T08:36:58;103861.21;;;12.89;56.51
63194;BME280;49289;51.670;5.624;2023-02-13T08:38:45;103862.34;;;12.99;56.50
63194;BME280;49289;51.670;5.624;2023-02-13T08:40:33;103867.52;;;13.13;56.45
63194;BME280;49289;51.670;5.624;2023-02-13T08:42:23;103869.88;;;13.13;56.63
63194;BME280;49289;51.670;5.624;2023-02-13T08:44:11;103870.59;;;13.19;56.87
63194;BME280;49289;51.670;5.624;2023-02-13T08:46:02;103871.75;;;13.40;56.53
63194;BME280;49289;51.670;5.624;2023-02-13T08:47:49;103890.46;;;13.43;56.74
63194;BME280;49289;51.670;5.624;2023-02-13T08:49:38;103876.09;;;13.53;56.41
63194;BME280;49289;51.670;5.624;2023-02-13T08:51:27;103870.98;;;13.59;56.39
63194;BME280;49289;51.670;5.624;2023-02-13T08:53:14;103888.09;;;13.84;56.19
63194;BME280;49289;51.670;5.624;2023-02-13T08:55:01;103877.96;;;14.01;55.86
63194;BME280;49289;51.670;5.624;2023-02-13T08:56:48;103861.16;;;14.06;55.65
63194;BME280;49289;51.670;5.624;2023-02-13T08:58:38;103863.16;;;13.86;55.63
63194;BME280;49289;51.670;5.624;2023-02-13T09:00:28;103876.94;;;13.94;55.77
63194;BME280;49289;51.670;5.624;2023-02-13T09:02:15;103867.64;;;13.79;56.23
63194;BME280;49289;51.670;5.624;2023-02-13T09:04:05;103855.94;;;14.09;55.58
63194;BME280;49289;51.670;5.624;2023-02-13T09:05:53;103856.66;;;14.20;55.52
63194;BME280;49289;51.670;5.624;2023-02-13T09:07:41;103857.68;;;14.31;55.44
63194;BME280;49289;51.670;5.624;2023-02-13T09:09:31;103856.31;;;13.89;56.16
63194;BME280;49289;51.670;5.624;2023-02-13T09:11:19;103855.46;;;13.70;56.18
63194;BME280;49289;51.670;5.624;2023-02-13T09:13:08;103850.50;;;14.14;55.75
63194;BME280;49289;51.670;5.624;2023-02-13T09:14:55;103856.13;;;14.72;54.55
63194;BME280;49289;51.670;5.624;2023-02-13T09:16:44;103869.72;;;14.82;54.41
63194;BME280;49289;51.670;5.624;2023-02-13T09:18:32;103857.21;;;14.94;54.00
63194;BME280;49289;51.670;5.624;2023-02-13T09:20:20;103873.85;;;14.82;54.14
63194;BME280;49289;51.670;5.624;2023-02-13T09:22:08;103876.47;;;15.28;53.54
63194;BME280;49289;51.670;5.624;2023-02-13T09:23:56;103881.52;;;15.18;53.42
63194;BME280;49289;51.670;5.624;2023-02-13T09:25:44;103883.84;;;15.19;53.09
63194;BME280;49289;51.670;5.624;2023-02-13T09:27:33;103877.27;;;15.26;53.48
63194;BME280;49289;51.670;5.624;2023-02-13T09:29:21;103863.23;;;15.47;53.00
63194;BME280;49289;51.670;5.624;2023-02-13T09:31:11;103860.52;;;15.47;52.69